Time;durP1;ratioP1;P1;durP2;ratioP2;P2;SDS_P1;SDS_P2;PMS_P1;PMS_P2;Temp;Humidity;BMP_temperature;BMP_pressure;BME280_temperature;BME280_humidity;BME280_pressure;Samples;Min_cycle;Max_cycle;Signal;HPM_P1;HPM_P2
2021/12/15 00:01:15;;;;;;;41.10;26.40;;;;;;;7.30;100.00;102516.13;4862290;29;20542;-81
2021/12/15 00:03:41;;;;;;;41.30;27.08;;;;;;;7.30;100.00;102500.13;4877765;29;20216;-80
2021/12/15 00:06:13;;;;;;;42.45;27.75;;;;;;;7.32;100.00;102509.03;4845229;29;20252;-81
2021/12/15 00:08:40;;;;;;;38.58;26.17;;;;;;;7.36;100.00;102503.69;4877230;29;20240;-81
2021/12/15 00:11:06;;;;;;;39.30;25.65;;;;;;;7.35;100.00;102501.94;4876423;29;20204;-80
2021/12/15 00:13:33;;;;;;;40.75;25.25;;;;;;;7.33;100.00;102506.38;4861058;29;20177;-81
2021/12/15 00:15:59;;;;;;;41.45;25.15;;;;;;;7.35;100.00;102509.94;4875880;29;20193;-80
2021/12/15 00:18:25;;;;;;;40.05;26.55;;;;;;;7.32;100.00;102509.03;4877223;29;20855;-81
2021/12/15 00:20:51;;;;;;;36.92;25.80;;;;;;;7.32;100.00;102514.34;4862606;29;20248;-80
2021/12/15 00:23:17;;;;;;;43.08;26.10;;;;;;;7.34;100.00;102510.81;4880533;29;20173;-81
2021/12/15 00:25:44;;;;;;;40.65;25.67;;;;;;;7.35;100.00;102512.59;4865882;29;20178;-81
2021/12/15 00:28:10;;;;;;;38.22;25.92;;;;;;;7.34;100.00;102508.13;4881221;29;20189;-80
2021/12/15 00:30:37;;;;;;;41.20;26.85;;;;;;;7.33;100.00;102510.81;4849277;29;20169;-81
2021/12/15 00:33:03;;;;;;;38.75;25.40;;;;;;;7.33;100.00;102506.38;4880000;29;20750;-81
2021/12/15 00:35:29;;;;;;;39.38;25.55;;;;;;;7.34;100.00;102517.91;4882458;29;20264;-81
2021/12/15 00:37:54;;;;;;;38.15;26.15;;;;;;;7.34;100.00;102515.25;4882538;29;20209;-81
2021/12/15 00:40:23;;;;;;;39.03;25.75;;;;;;;7.36;100.00;102516.16;4882703;29;20218;-81
2021/12/15 00:42:53;;;;;;;37.28;25.25;;;;;;;7.39;100.00;102506.38;4881376;29;20622;-81
2021/12/15 00:45:20;;;;;;;35.85;25.15;;;;;;;7.45;100.00;102525.94;4880414;29;20193;-81
2021/12/15 00:47:46;;;;;;;37.13;25.42;;;;;;;7.40;100.00;102566.81;4881357;29;20193;-81
2021/12/15 00:50:16;;;;;;;34.90;24.63;;;;;;;7.42;100.00;102559.72;4881960;29;20181;-80
2021/12/15 00:52:43;;;;;;;37.50;25.20;;;;;;;7.40;100.00;102555.28;4863714;29;20230;-81
2021/12/15 00:55:14;;;;;;;37.90;24.58;;;;;;;7.39;100.00;102538.38;4864594;29;20221;-81
2021/12/15 00:57:39;;;;;;;38.22;24.27;;;;;;;7.42;100.00;102527.72;4848260;29;20189;-81
2021/12/15 01:00:10;;;;;;;33.72;24.10;;;;;;;7.45;100.00;102532.16;4848892;29;20492;-81
2021/12/15 01:02:36;;;;;;;35.25;24.70;;;;;;;7.45;100.00;102533.94;4880813;29;20869;-81
2021/12/15 01:05:02;;;;;;;39.40;24.92;;;;;;;7.47;100.00;102535.72;4880380;29;20173;-81
2021/12/15 01:07:28;;;;;;;35.70;24.35;;;;;;;7.46;100.00;102533.06;4878997;29;20333;-81
2021/12/15 01:09:58;;;;;;;36.13;24.77;;;;;;;7.48;100.00;102525.94;4880627;29;20209;-81
2021/12/15 01:12:50;;;;;;;38.28;25.23;;;;;;;7.51;100.00;102528.63;4878998;29;20213;-81
2021/12/15 01:20:42;;;;;;;36.85;25.33;;;;;;;7.53;100.00;102534.84;4880110;29;20224;-81
2021/12/15 01:23:13;;;;;;;35.38;23.52;;;;;;;7.57;100.00;102533.97;4879403;29;20218;-81
2021/12/15 01:26:08;;;;;;;37.50;24.95;;;;;;;7.56;100.00;102518.84;4880132;29;20612;-81
2021/12/15 01:28:34;;;;;;;33.95;23.63;;;;;;;7.60;100.00;102509.97;4872718;29;20247;-81
2021/12/15 01:31:00;;;;;;;35.35;23.95;;;;;;;7.60;100.00;102526.84;4846652;29;20742;-82
2021/12/15 01:33:27;;;;;;;36.80;24.92;;;;;;;7.60;100.00;102525.97;4880864;29;20189;-82
2021/12/15 01:35:55;;;;;;;34.45;24.02;;;;;;;7.60;100.00;102523.31;4864581;29;20201;-82
2021/12/15 01:38:27;;;;;;;33.20;23.52;;;;;;;7.62;100.00;102535.75;4869844;29;20702;-82
2021/12/15 01:40:53;;;;;;;35.42;24.08;;;;;;;7.64;100.00;102536.66;4845733;29;20277;-82
2021/12/15 01:46:52;;;;;;;35.20;24.58;;;;;;;7.65;100.00;102534.84;4845296;29;20256;-82
2021/12/15 01:49:39;;;;;;;27.05;21.33;;;;;;;7.72;100.00;102528.66;4861988;29;20182;-81
2021/12/15 01:52:13;;;;;;;32.55;21.33;;;;;;;7.78;100.00;102541.09;4840938;29;20684;-82
2021/12/15 01:54:44;;;;;;;32.10;22.15;;;;;;;7.75;100.00;102542.00;4861171;29;20193;-82
2021/12/15 01:57:11;;;;;;;30.95;22.27;;;;;;;7.73;100.00;102545.56;4844771;29;20175;-82
2021/12/15 01:59:38;;;;;;;31.35;21.80;;;;;;;7.72;100.00;102536.66;4876467;29;20269;-82
2021/12/15 02:02:05;;;;;;;27.65;20.92;;;;;;;7.76;100.00;102532.19;4846448;29;20205;-82
2021/12/15 02:04:31;;;;;;;34.42;22.42;;;;;;;7.77;100.00;102537.56;4864565;29;20238;-81
2021/12/15 02:06:57;;;;;;;30.85;21.20;;;;;;;7.72;100.00;102528.66;4863424;29;20843;-81
2021/12/15 02:09:45;;;;;;;30.48;21.00;;;;;;;7.73;100.00;102530.44;4853072;29;20757;-81
2021/12/15 02:12:11;;;;;;;30.92;21.95;;;;;;;7.71;100.00;102534.00;4882720;29;20257;-81
2021/12/15 02:17:13;;;;;;;30.45;22.60;;;;;;;7.72;100.00;102539.34;4854657;29;20237;-81
2021/12/15 02:19:39;;;;;;;34.40;23.10;;;;;;;7.70;100.00;102533.09;4846733;29;20193;-81
2021/12/15 02:22:06;;;;;;;32.70;22.80;;;;;;;7.70;100.00;102532.22;4870412;29;20197;-81
2021/12/15 02:24:34;;;;;;;34.25;22.88;;;;;;;7.71;100.00;102523.31;4864066;29;20204;-81
2021/12/15 02:27:03;;;;;;;34.47;23.38;;;;;;;7.75;100.00;102517.97;4878736;29;20193;-82
2021/12/15 02:29:33;;;;;;;38.30;23.83;;;;;;;7.83;100.00;102521.56;4879527;29;20240;-82
2021/12/15 02:32:14;;;;;;;33.85;22.63;;;;;;;7.81;100.00;102527.78;4878476;29;20699;-82
2021/12/15 02:37:04;;;;;;;30.85;21.38;;;;;;;7.83;100.00;102520.66;4862697;29;20609;-82
2021/12/15 02:37:41;;;;;;;32.33;20.75;;;;;;;7.84;100.00;102525.97;4872797;29;20192;-82
2021/12/15 02:40:11;;;;;;;30.50;21.50;;;;;;;7.90;100.00;102533.13;4860699;29;20558;-82
2021/12/15 02:42:42;;;;;;;31.80;21.65;;;;;;;7.93;100.00;102541.09;4859287;29;20624;-82
2021/12/15 02:45:11;;;;;;;31.52;20.38;;;;;;;7.94;100.00;102534.91;4860734;29;20178;-81
2021/12/15 02:47:37;;;;;;;33.20;20.90;;;;;;;7.93;100.00;102540.22;4860567;29;20181;-81
2021/12/15 02:50:07;;;;;;;25.80;19.27;;;;;;;7.93;100.00;102540.22;4858874;29;20178;-81
2021/12/15 02:52:34;;;;;;;28.63;20.30;;;;;;;7.98;100.00;102527.75;4934624;23;20230;-80
2021/12/15 02:54:59;;;;;;;27.83;19.65;;;;;;;7.98;100.00;102528.69;4878449;29;20185;-81
2021/12/15 02:57:25;;;;;;;28.42;20.15;;;;;;;7.98;100.00;102538.44;4861472;29;20185;-81
2021/12/15 03:00:02;;;;;;;26.75;19.35;;;;;;;8.00;100.00;102542.00;4877672;29;20249;-81
2021/12/15 03:04:00;;;;;;;27.08;19.33;;;;;;;8.03;100.00;102542.00;4878572;29;20212;-81
2021/12/15 03:05:41;;;;;;;25.42;17.60;;;;;;;8.03;100.00;102537.56;4870022;29;20617;-81
2021/12/15 03:08:12;;;;;;;24.48;17.27;;;;;;;8.04;100.00;102541.13;4861110;29;20181;-81
2021/12/15 03:16:12;;;;;;;25.50;17.55;;;;;;;8.07;100.00;102556.22;4881680;29;20177;-80
2021/12/15 03:18:37;;;;;;;29.90;17.13;;;;;;;8.04;100.00;102535.78;4880557;29;20897;-81
2021/12/15 03:21:21;;;;;;;27.45;17.08;;;;;;;8.04;100.00;102542.00;4864362;29;20214;-81
2021/12/15 03:24:00;;;;;;;27.80;17.30;;;;;;;8.05;100.00;102540.25;4880488;29;20627;-81
2021/12/15 03:26:34;;;;;;;22.98;16.40;;;;;;;8.13;100.00;102541.09;4878590;29;20182;-81
2021/12/15 03:37:22;;;;;;;19.23;14.25;;;;;;;8.08;100.00;102547.34;4878092;29;20690;-81
2021/12/15 03:39:58;;;;;;;20.75;13.57;;;;;;;8.08;100.00;102550.03;4859876;29;20182;-81
2021/12/15 03:42:30;;;;;;;21.27;15.00;;;;;;;8.10;100.00;102546.47;4828764;29;20212;-81
2021/12/15 03:44:58;;;;;;;23.88;15.85;;;;;;;8.06;100.00;102560.69;4859473;29;20269;-81
2021/12/15 03:47:28;;;;;;;26.75;15.80;;;;;;;8.09;100.00;102552.69;4843298;29;20198;-81
2021/12/15 03:49:55;;;;;;;24.88;16.60;;;;;;;8.04;100.00;102558.00;4843428;29;20269;-80
2021/12/15 03:52:21;;;;;;;25.88;17.92;;;;;;;8.02;100.00;102551.81;4843157;29;20217;-81
2021/12/15 03:54:48;;;;;;;23.73;17.10;;;;;;;8.07;100.00;102554.47;4859747;29;20560;-81
2021/12/15 03:57:14;;;;;;;27.42;18.02;;;;;;;8.01;100.00;102550.00;4859457;29;20182;-81
2021/12/15 03:59:43;;;;;;;27.67;17.38;;;;;;;7.99;100.00;102545.56;4859332;29;20288;-80
2021/12/15 04:02:16;;;;;;;24.95;17.77;;;;;;;8.00;100.00;102558.94;4842904;29;20214;-81
2021/12/15 04:04:43;;;;;;;19.50;15.25;;;;;;;8.10;100.00;102559.81;4841681;29;20673;-82
2021/12/15 04:07:10;;;;;;;22.80;16.25;;;;;;;8.09;100.00;102558.03;4860751;29;20193;-81
2021/12/15 04:09:36;;;;;;;25.77;16.90;;;;;;;8.10;100.00;102548.25;4846918;29;20177;-81
2021/12/15 04:12:03;;;;;;;27.08;18.42;;;;;;;8.09;100.00;102552.69;4877751;29;20209;-80
2021/12/15 04:14:34;;;;;;;30.20;18.55;;;;;;;8.09;100.00;102543.78;4872827;29;20336;-81
2021/12/15 04:17:06;;;;;;;27.58;17.48;;;;;;;8.08;100.00;102553.56;4857572;29;20195;-81
2021/12/15 04:19:35;;;;;;;29.90;17.45;;;;;;;8.03;100.00;102550.03;4877388;29;20230;-80
2021/12/15 04:22:02;;;;;;;27.45;17.48;;;;;;;8.06;100.00;102555.34;4863501;29;20550;-81
2021/12/15 04:24:28;;;;;;;29.20;18.08;;;;;;;8.05;100.00;102550.91;4879186;29;20169;-81
2021/12/15 04:26:58;;;;;;;30.95;18.05;;;;;;;8.03;100.00;102539.34;4862697;29;20655;-81
2021/12/15 04:29:24;;;;;;;30.45;18.85;;;;;;;8.04;100.00;102538.44;4879664;29;20250;-81
2021/12/15 04:31:59;;;;;;;32.22;19.58;;;;;;;8.03;100.00;102552.69;4878011;29;20255;-82
2021/12/15 04:34:25;;;;;;;31.55;19.58;;;;;;;8.02;100.00;102541.13;4862729;29;20197;-81
2021/12/15 04:36:52;;;;;;;36.08;20.85;;;;;;;7.99;100.00;102549.13;4878862;29;20185;-81
2021/12/15 04:39:24;;;;;;;35.72;20.77;;;;;;;7.99;100.00;102546.47;4861555;29;20202;-82
2021/12/15 04:41:52;;;;;;;29.70;18.88;;;;;;;7.99;100.00;102537.56;4843467;29;20619;-81
2021/12/15 04:44:22;;;;;;;31.80;19.08;;;;;;;8.00;100.00;102542.00;4861200;29;20221;-82
2021/12/15 04:46:59;;;;;;;31.25;19.33;;;;;;;8.02;100.00;102546.47;4864924;29;20174;-82
2021/12/15 04:49:27;;;;;;;34.72;19.98;;;;;;;8.10;100.00;102541.13;4843380;29;20162;-81
2021/12/15 04:51:53;;;;;;;33.25;19.90;;;;;;;8.11;100.00;102542.00;4844645;29;20214;-81
2021/12/15 04:54:19;;;;;;;35.67;21.20;;;;;;;8.08;100.00;102526.00;4850841;23;20242;-81
2021/12/15 04:56:45;;;;;;;39.55;20.42;;;;;;;8.05;100.00;102538.44;4838190;29;20249;-81
2021/12/15 04:59:12;;;;;;;40.45;23.77;;;;;;;8.12;100.00;102533.13;4866298;29;20642;-80
2021/12/15 05:01:38;;;;;;;39.65;23.20;;;;;;;8.04;100.00;102525.09;4842795;29;20234;-80
2021/12/15 05:04:03;;;;;;;44.05;25.13;;;;;;;8.07;100.00;102532.22;4859890;29;20207;-81
2021/12/15 05:09:04;;;;;;;50.90;25.88;;;;;;;8.12;100.00;102533.13;4865035;29;20273;-82
2021/12/15 05:11:30;;;;;;;53.55;27.13;;;;;;;8.11;100.00;102528.66;4871328;29;20229;-81
2021/12/15 05:13:56;;;;;;;51.70;25.77;;;;;;;8.09;100.00;102528.69;4885547;23;20643;-82
2021/12/15 05:16:22;;;;;;;55.53;26.70;;;;;;;8.09;100.00;102523.34;5152352;23;21189;-82
2021/12/15 05:18:49;;;;;;;66.22;27.75;;;;;;;8.09;100.00;102528.69;4857176;29;20194;-82
2021/12/15 05:21:16;;;;;;;55.85;27.02;;;;;;;8.08;100.00;102528.66;4894355;29;20240;-82
2021/12/15 05:23:47;;;;;;;55.75;27.35;;;;;;;8.09;100.00;102520.66;4868607;29;20174;-82
2021/12/15 05:26:12;;;;;;;58.45;27.90;;;;;;;8.13;100.00;102529.53;4867999;29;20173;-82
2021/12/15 05:28:38;;;;;;;65.60;28.70;;;;;;;8.13;100.00;102525.09;4867206;29;20185;-82
2021/12/15 05:31:04;;;;;;;66.00;27.65;;;;;;;8.09;100.00;102536.69;4880434;29;20205;-81
2021/12/15 05:33:29;;;;;;;67.63;30.48;;;;;;;8.17;100.00;102534.88;4880475;29;20197;-81
2021/12/15 05:35:56;;;;;;;65.85;28.58;;;;;;;8.22;100.00;102532.19;4864962;29;20264;-81
2021/12/15 05:38:23;;;;;;;62.70;28.70;;;;;;;8.19;100.00;102534.88;4859102;29;20210;-82
2021/12/15 05:40:49;;;;;;;70.40;30.67;;;;;;;8.17;100.00;102540.22;4827886;29;20610;-82
2021/12/15 05:43:15;;;;;;;65.82;29.27;;;;;;;8.19;100.00;102532.22;4846307;29;20189;-81
2021/12/15 05:45:41;;;;;;;54.58;28.50;;;;;;;8.22;100.00;102541.13;4845626;29;20210;-81
2021/12/15 05:48:10;;;;;;;58.83;28.10;;;;;;;8.30;100.00;102548.22;4843703;29;20197;-81
2021/12/15 05:50:36;;;;;;;62.20;27.67;;;;;;;8.30;100.00;102545.56;4845282;29;20171;-81
2021/12/15 05:53:03;;;;;;;56.28;28.55;;;;;;;8.39;100.00;102557.09;4828581;29;20229;-81
2021/12/15 05:55:28;;;;;;;52.10;27.17;;;;;;;8.35;100.00;102547.34;4829109;29;20187;-81
2021/12/15 05:57:54;;;;;;;55.17;28.60;;;;;;;8.35;100.00;102555.34;4828045;29;20190;-81
2021/12/15 06:00:26;;;;;;;53.88;27.17;;;;;;;8.39;100.00;102561.56;4829019;29;20273;-82
2021/12/15 06:02:53;;;;;;;50.47;28.17;;;;;;;8.41;100.00;102551.78;4828342;29;20201;-81
2021/12/15 06:05:20;;;;;;;51.30;27.83;;;;;;;8.41;100.00;102559.81;4845105;29;20202;-81
2021/12/15 06:07:46;;;;;;;49.25;26.17;;;;;;;8.40;100.00;102558.94;4813518;29;20206;-82
2021/12/15 06:10:23;;;;;;;48.83;25.35;;;;;;;8.42;100.00;102564.28;4845152;29;20181;-80
2021/12/15 06:12:50;;;;;;;54.67;26.17;;;;;;;8.43;100.00;102568.72;4846198;29;20214;-81
2021/12/15 06:15:22;;;;;;;46.85;26.38;;;;;;;8.43;100.00;102568.72;5037666;23;20230;-80
2021/12/15 06:17:56;;;;;;;45.25;25.50;;;;;;;8.43;100.00;102574.06;4883847;29;20268;-80
2021/12/15 06:20:22;;;;;;;49.00;27.08;;;;;;;8.41;100.00;102574.03;4883348;29;20181;-81
2021/12/15 06:22:48;;;;;;;45.63;25.98;;;;;;;8.45;100.00;102580.28;4886340;29;20603;-81
2021/12/15 06:25:14;;;;;;;47.17;24.60;;;;;;;8.44;100.00;102575.84;4885751;29;20213;-80
2021/12/15 06:27:40;;;;;;;47.83;26.17;;;;;;;8.49;100.00;102582.06;4867071;29;20181;-81
2021/12/15 06:30:07;;;;;;;50.85;27.70;;;;;;;8.46;100.00;102576.72;4865092;29;20201;-80
2021/12/15 06:32:33;;;;;;;43.20;24.90;;;;;;;8.44;100.00;102584.75;4873246;23;20230;-82
2021/12/15 06:34:59;;;;;;;46.22;26.33;;;;;;;8.45;100.00;102594.53;4867493;29;20211;-81
2021/12/15 06:37:24;;;;;;;40.92;24.50;;;;;;;8.45;100.00;102580.28;4864712;29;20181;-81
2021/12/15 06:39:50;;;;;;;39.10;23.60;;;;;;;8.47;100.00;102596.31;4882409;29;20184;-82
2021/12/15 06:57:14;;;;;;;40.72;26.17;;;;;;;8.42;100.00;102615.03;5608701;23;20307;-82
2021/12/15 06:58:31;;;;;;;41.92;24.42;;;;;;;8.41;100.00;102618.56;4865291;29;20184;-81
2021/12/15 07:01:00;;;;;;;42.33;25.40;;;;;;;8.36;100.00;102615.88;4849723;29;20280;-81
2021/12/15 07:03:26;;;;;;;45.17;27.33;;;;;;;8.39;100.00;102612.31;4882370;29;20176;-81
2021/12/15 07:05:55;;;;;;;43.97;25.27;;;;;;;8.42;100.00;102620.38;4881463;29;20244;-82
2021/12/15 07:08:22;;;;;;;46.40;24.60;;;;;;;8.39;100.00;102620.31;4879748;29;20212;-82
2021/12/15 07:10:50;;;;;;;45.85;26.23;;;;;;;8.37;100.00;102628.31;4864918;29;20670;-81
2021/12/15 07:13:17;;;;;;;43.15;24.63;;;;;;;8.37;100.00;102635.44;4864845;29;20577;-82
2021/12/15 07:15:45;;;;;;;44.38;26.60;;;;;;;8.39;100.00;102628.34;4883332;29;20661;-82
2021/12/15 07:18:12;;;;;;;44.33;25.80;;;;;;;8.42;100.00;102628.38;4879319;29;20192;-81
2021/12/15 07:20:47;;;;;;;39.85;25.98;;;;;;;8.40;100.00;102641.72;4869094;29;20181;-81
2021/12/15 07:23:20;;;;;;;42.53;25.45;;;;;;;8.38;100.00;102632.78;4864379;29;20744;-81
2021/12/15 07:25:47;;;;;;;42.03;24.88;;;;;;;8.41;100.00;102634.59;4880714;29;20162;-81
2021/12/15 07:28:16;;;;;;;48.38;26.60;;;;;;;8.49;100.00;102639.94;4863283;29;20177;-82
2021/12/15 07:30:42;;;;;;;47.88;26.35;;;;;;;8.45;100.00;102631.03;4881098;29;20184;-81
2021/12/15 07:33:10;;;;;;;45.08;26.42;;;;;;;8.42;100.00;102633.72;4879287;29;20560;-81
2021/12/15 07:35:47;;;;;;;50.40;26.35;;;;;;;8.44;100.00;102637.28;4882450;29;20158;-80
2021/12/15 07:38:13;;;;;;;46.08;26.98;;;;;;;8.49;100.00;102642.63;4865448;29;20181;-82
2021/12/15 07:40:40;;;;;;;46.17;25.33;;;;;;;8.43;100.00;102635.50;4882061;29;20168;-81
2021/12/15 07:43:12;;;;;;;40.63;23.88;;;;;;;8.45;100.00;102633.72;4849827;29;20185;-81
2021/12/15 07:45:40;;;;;;;45.50;25.98;;;;;;;8.44;100.00;102638.16;4864335;29;20182;-82
2021/12/15 07:48:09;;;;;;;43.75;26.63;;;;;;;8.40;100.00;102638.16;4824741;29;1192100;-82
2021/12/15 07:50:36;;;;;;;44.72;26.58;;;;;;;8.44;100.00;102634.63;4867017;29;20277;-82
2021/12/15 07:53:03;;;;;;;46.15;27.30;;;;;;;8.44;100.00;102626.59;4866454;29;20564;-82
2021/12/15 07:55:29;;;;;;;43.78;25.38;;;;;;;8.41;100.00;102622.13;4865493;29;20255;-81
2021/12/15 07:57:55;;;;;;;47.80;25.52;;;;;;;8.45;100.00;102641.72;4868483;29;20241;-81
2021/12/15 08:00:21;;;;;;;50.55;26.33;;;;;;;8.41;100.00;102646.16;4883646;29;20194;-82
2021/12/15 08:02:47;;;;;;;45.30;25.90;;;;;;;8.45;100.00;102631.91;4880934;29;20209;-81
2021/12/15 08:05:13;;;;;;;49.63;24.95;;;;;;;8.50;100.00;102634.59;4867524;29;20524;-81
2021/12/15 08:07:39;;;;;;;43.05;23.75;;;;;;;8.49;100.00;102639.94;4858017;29;20191;-81
2021/12/15 08:10:08;;;;;;;43.17;24.92;;;;;;;8.48;100.00;102647.06;4830661;29;20194;-82
2021/12/15 08:12:34;;;;;;;40.33;23.52;;;;;;;8.46;100.00;102643.50;4861851;29;20237;-81
2021/12/15 08:15:00;;;;;;;38.97;23.08;;;;;;;8.47;100.00;102647.06;4854035;29;20638;-80
2021/12/15 08:17:26;;;;;;;48.90;23.38;;;;;;;8.48;100.00;102649.72;4867951;29;20229;-80
2021/12/15 08:19:54;;;;;;;33.40;22.92;;;;;;;8.49;100.00;102651.53;4868158;29;20268;-80
2021/12/15 08:22:20;;;;;;;39.92;23.08;;;;;;;8.49;100.00;102648.84;4864137;29;20189;-81
2021/12/15 08:24:45;;;;;;;39.00;22.83;;;;;;;8.47;100.00;102661.31;4864193;29;20178;-82
2021/12/15 08:27:11;;;;;;;37.45;22.13;;;;;;;8.47;100.00;102657.75;4848483;29;20292;-82
2021/12/15 08:29:43;;;;;;;39.47;22.95;;;;;;;8.47;100.00;102650.63;4870715;29;20254;-80
2021/12/15 08:32:08;;;;;;;38.67;22.48;;;;;;;8.48;100.00;102654.19;4861803;29;20218;-81
2021/12/15 08:34:34;;;;;;;45.97;21.98;;;;;;;8.47;100.00;102652.41;4847392;29;20170;-80
2021/12/15 08:37:00;;;;;;;34.53;20.23;;;;;;;8.50;100.00;102661.31;4862797;29;20568;-82
2021/12/15 08:39:25;;;;;;;34.38;20.58;;;;;;;8.51;100.00;102655.09;4830049;29;20625;-82
2021/12/15 08:41:51;;;;;;;31.13;18.77;;;;;;;8.55;100.00;102664.88;4847075;29;20221;-82
2021/12/15 08:44:17;;;;;;;34.88;18.23;;;;;;;8.58;100.00;102655.97;4848503;29;20182;-82
2021/12/15 08:46:46;;;;;;;32.15;18.05;;;;;;;8.57;100.00;102656.84;4834347;29;20190;-81
2021/12/15 08:49:16;;;;;;;32.08;17.58;;;;;;;8.58;100.00;102650.63;4881992;29;20193;-81
2021/12/15 08:51:43;;;;;;;28.35;16.63;;;;;;;8.63;100.00;102659.53;4851415;29;20312;-80
2021/12/15 08:54:14;;;;;;;25.33;16.38;;;;;;;8.59;100.00;102661.31;4870365;29;20173;-82
2021/12/15 08:56:40;;;;;;;30.15;17.15;;;;;;;8.59;100.00;102647.06;4865688;29;20181;-81
2021/12/15 08:59:07;;;;;;;30.73;17.50;;;;;;;8.57;100.00;102652.41;4880713;29;20218;-82
2021/12/15 09:01:33;;;;;;;32.13;16.98;;;;;;;8.56;100.00;102647.94;4867150;29;20300;-82
2021/12/15 09:03:59;;;;;;;31.10;18.75;;;;;;;8.56;100.00;102661.31;4866498;29;20631;-82
2021/12/15 09:06:24;;;;;;;31.88;19.20;;;;;;;8.58;100.00;102654.19;4849872;29;20189;-82
2021/12/15 09:08:51;;;;;;;28.73;18.00;;;;;;;8.58;100.00;102659.53;4848945;29;20181;-82
2021/12/15 09:11:21;;;;;;;30.00;19.30;;;;;;;8.68;100.00;102660.44;4850292;29;20198;-82
2021/12/15 09:13:50;;;;;;;33.10;20.33;;;;;;;8.65;100.00;102665.75;4865910;29;20549;-82
2021/12/15 09:16:16;;;;;;;38.17;21.40;;;;;;;8.72;100.00;102663.97;4849142;29;20215;-80
2021/12/15 09:18:45;;;;;;;30.10;20.08;;;;;;;8.73;100.00;102661.31;4865893;29;20291;-83
2021/12/15 09:21:12;;;;;;;34.35;21.55;;;;;;;8.70;100.00;102658.63;4866885;29;20197;-79
2021/12/15 09:23:38;;;;;;;32.50;20.27;;;;;;;8.70;100.00;102655.06;4866064;29;20166;-81
2021/12/15 09:26:05;;;;;;;27.00;19.73;;;;;;;8.71;100.00;102660.41;4848647;29;20230;-81
2021/12/15 09:28:32;;;;;;;35.88;19.75;;;;;;;8.71;100.00;102665.75;4848544;29;20197;-81
2021/12/15 09:30:59;;;;;;;25.75;17.38;;;;;;;8.73;100.00;102657.75;4833669;29;20186;-81
2021/12/15 09:33:29;;;;;;;28.33;18.20;;;;;;;8.73;100.00;102668.44;4866958;29;20218;-81
2021/12/15 09:35:55;;;;;;;26.75;17.75;;;;;;;8.74;100.00;102657.72;4867930;29;20257;-82
2021/12/15 09:38:22;;;;;;;29.80;17.90;;;;;;;8.80;100.00;102679.09;4858997;29;20239;-80
2021/12/15 09:40:50;;;;;;;24.52;16.45;;;;;;;8.85;100.00;102676.41;4833551;29;20186;-80
2021/12/15 09:43:17;;;;;;;30.25;17.52;;;;;;;8.84;100.00;102677.31;4816545;29;20174;-82
2021/12/15 09:45:54;;;;;;;24.90;15.60;;;;;;;8.94;100.00;102673.72;4832678;29;20202;-82
2021/12/15 10:02:03;;;;;;;23.55;14.38;;;;;;;9.01;100.00;102678.19;4852904;29;20202;-80
2021/12/15 10:04:36;;;;;;;27.88;15.43;;;;;;;9.02;100.00;102676.41;4869821;29;20639;-80
2021/12/15 10:18:32;;;;;;;28.45;14.18;;;;;;;9.16;100.00;102693.31;4883752;29;20266;-81
2021/12/15 10:20:58;;;;;;;22.85;13.48;;;;;;;9.20;100.00;102679.00;4865092;29;20177;-81
2021/12/15 10:23:31;;;;;;;22.90;13.18;;;;;;;9.21;100.00;102679.94;4882377;29;20229;-82
2021/12/15 10:25:57;;;;;;;19.70;12.50;;;;;;;9.20;100.00;102694.19;4882288;29;20248;-81
2021/12/15 10:28:28;;;;;;;21.75;12.90;;;;;;;9.24;100.00;102677.22;4850303;29;20264;-81
2021/12/15 10:30:59;;;;;;;22.98;12.40;;;;;;;9.25;100.00;102682.59;4866025;29;20249;-81
2021/12/15 10:33:28;;;;;;;23.90;12.70;;;;;;;9.29;100.00;102680.78;4881969;29;20694;-79
2021/12/15 10:36:24;;;;;;;27.90;12.35;;;;;;;9.40;100.00;102691.44;4849878;29;20245;-80
2021/12/15 10:38:54;;;;;;;16.80;11.55;;;;;;;9.32;100.00;102685.25;4864479;29;20182;-79
2021/12/15 10:41:27;;;;;;;20.88;12.25;;;;;;;9.30;100.00;102687.91;4866425;29;20296;-80
2021/12/15 10:44:07;;;;;;;22.00;12.32;;;;;;;9.36;100.00;102679.88;4866981;29;20264;-81
2021/12/15 10:46:49;;;;;;;17.95;11.30;;;;;;;9.36;100.00;102685.22;4875373;29;20292;-79
2021/12/15 10:49:29;;;;;;;21.45;12.07;;;;;;;9.31;100.00;102668.28;4846936;29;20219;-79
2021/12/15 10:52:01;;;;;;;22.33;10.85;;;;;;;9.37;100.00;102678.97;4846290;29;20592;-79
2021/12/15 10:54:38;;;;;;;16.23;10.27;;;;;;;9.39;100.00;102671.84;4846720;29;20682;-80
2021/12/15 10:57:16;;;;;;;19.15;10.68;;;;;;;9.44;99.58;102670.00;4861842;29;20623;-83
2021/12/15 10:59:54;;;;;;;16.90;9.50;;;;;;;9.45;99.08;102685.19;4863756;29;20556;-83
2021/12/15 11:02:27;;;;;;;15.50;8.95;;;;;;;9.37;99.20;102673.63;4831743;29;20223;-80
2021/12/15 11:05:00;;;;;;;15.82;9.73;;;;;;;9.32;99.53;102671.88;4846491;29;20181;-79
2021/12/15 11:07:44;;;;;;;16.17;9.73;;;;;;;9.29;100.00;102667.41;4859913;29;20174;-79
2021/12/15 11:10:18;;;;;;;19.13;11.23;;;;;;;9.31;100.00;102662.94;4862397;29;20178;-79
2021/12/15 11:12:49;;;;;;;18.98;11.32;;;;;;;9.35;100.00;102651.34;4846997;29;20207;-81
2021/12/15 11:15:25;;;;;;;18.88;11.48;;;;;;;9.35;100.00;102654.00;4864187;29;20182;-80
2021/12/15 11:17:56;;;;;;;20.00;11.25;;;;;;;9.27;100.00;102645.13;4847228;29;20182;-80
2021/12/15 11:20:32;;;;;;;14.90;10.27;;;;;;;9.24;100.00;102646.03;4845841;29;20192;-80
2021/12/15 11:23:03;;;;;;;18.73;10.93;;;;;;;9.26;100.00;102651.38;4847020;29;20201;-80
2021/12/15 11:25:43;;;;;;;16.70;10.05;;;;;;;9.23;100.00;102662.09;4846308;29;20190;-80
2021/12/15 11:28:29;;;;;;;19.60;9.93;;;;;;;9.34;100.00;102660.28;4862726;29;20178;-81
2021/12/15 11:31:10;;;;;;;18.15;9.48;;;;;;;9.31;100.00;102652.22;4846200;29;20178;-81
2021/12/15 11:33:41;;;;;;;14.85;8.73;;;;;;;9.32;100.00;102648.69;4863698;29;20193;-81
2021/12/15 11:36:25;;;;;;;16.40;9.23;;;;;;;9.38;99.95;102659.38;4863722;29;20226;-80
2021/12/15 11:39:05;;;;;;;16.83;9.23;;;;;;;9.36;99.27;102645.09;4846561;29;20209;-81
2021/12/15 11:41:31;;;;;;;14.77;8.52;;;;;;;9.36;99.31;102658.47;4833274;29;20214;-81
2021/12/15 11:44:04;;;;;;;14.52;8.88;;;;;;;9.38;99.54;102662.03;4863652;29;20259;-81
2021/12/15 11:46:42;;;;;;;19.50;8.75;;;;;;;9.32;99.54;102664.72;4847030;29;20666;-82
2021/12/15 11:49:14;;;;;;;15.90;9.10;;;;;;;9.34;99.08;102667.41;4847181;29;20197;-81
2021/12/15 11:51:48;;;;;;;18.05;8.73;;;;;;;9.36;99.64;102673.63;4862910;29;20287;-81
2021/12/15 11:54:23;;;;;;;14.80;8.80;;;;;;;9.22;99.66;102669.19;4863985;29;20170;-81
2021/12/15 11:57:01;;;;;;;19.63;8.95;;;;;;;9.15;99.97;102672.78;4862402;29;20170;-82
2021/12/15 11:59:37;;;;;;;18.50;10.02;;;;;;;9.20;99.62;102671.00;4846031;29;20174;-81
2021/12/15 12:02:24;;;;;;;15.75;8.35;;;;;;;9.20;99.47;102680.81;4846481;29;20204;-80
2021/12/15 12:04:56;;;;;;;17.40;8.73;;;;;;;9.16;99.50;102679.03;4862940;29;20221;-81
2021/12/15 12:07:22;;;;;;;14.48;9.02;;;;;;;9.15;99.15;102675.47;4846117;29;20163;-81
2021/12/15 12:10:03;;;;;;;10.95;7.47;;;;;;;9.21;97.94;102678.13;4846234;29;20189;-80
2021/12/15 12:12:46;;;;;;;16.33;8.02;;;;;;;9.14;97.77;102681.72;4847821;29;20603;-79
2021/12/15 12:15:14;;;;;;;12.88;7.10;;;;;;;9.07;96.91;102686.22;4865288;29;20185;-80
2021/12/15 12:17:43;;;;;;;13.93;7.68;;;;;;;9.04;96.31;102686.19;4851020;29;20174;-81
2021/12/15 12:20:19;;;;;;;12.13;7.05;;;;;;;8.98;96.46;102677.28;4834792;29;20644;-80
2021/12/15 12:22:46;;;;;;;9.95;6.63;;;;;;;8.99;96.07;102688.00;4850802;29;20679;-80
2021/12/15 12:25:19;;;;;;;15.55;7.28;;;;;;;8.94;96.88;102683.53;4866382;29;20185;-81
2021/12/15 12:27:47;;;;;;;12.82;7.72;;;;;;;8.90;96.91;102679.09;4833925;29;20174;-81
2021/12/15 12:30:41;;;;;;;15.77;8.82;;;;;;;8.83;96.89;102671.09;4834454;29;20196;-81